sensor_id;sensor_type;location;lat;lon;timestamp;P1;durP1;ratioP1;P2;durP2;ratioP2
19877;SDS011;10101;52.204;9.910;2023-02-24T00:01:14;17.17;;;2.43;;
19877;SDS011;10101;52.204;9.910;2023-02-24T00:03:49;10.57;;;2.20;;
19877;SDS011;10101;52.204;9.910;2023-02-24T00:06:16;13.33;;;2.83;;
19877;SDS011;10101;52.204;9.910;2023-02-24T00:08:43;12.03;;;2.47;;
19877;SDS011;10101;52.204;9.910;2023-02-24T00:11:10;14.70;;;2.33;;
19877;SDS011;10101;52.204;9.910;2023-02-24T00:13:38;9.67;;;2.13;;
19877;SDS011;10101;52.204;9.910;2023-02-24T00:16:05;12.70;;;2.57;;
19877;SDS011;10101;52.204;9.910;2023-02-24T00:18:34;14.80;;;2.40;;
19877;SDS011;10101;52.204;9.910;2023-02-24T00:21:02;16.63;;;2.30;;
19877;SDS011;10101;52.204;9.910;2023-02-24T00:23:33;13.70;;;2.50;;
19877;SDS011;10101;52.204;9.910;2023-02-24T00:26:01;13.03;;;2.73;;
19877;SDS011;10101;52.204;9.910;2023-02-24T00:28:28;12.60;;;2.30;;
19877;SDS011;10101;52.204;9.910;2023-02-24T00:30:55;15.27;;;2.70;;
19877;SDS011;10101;52.204;9.910;2023-02-24T00:33:27;12.70;;;2.13;;
19877;SDS011;10101;52.204;9.910;2023-02-24T00:36:02;15.80;;;2.30;;
19877;SDS011;10101;52.204;9.910;2023-02-24T00:38:30;16.20;;;2.50;;
19877;SDS011;10101;52.204;9.910;2023-02-24T00:40:59;9.77;;;2.50;;
19877;SDS011;10101;52.204;9.910;2023-02-24T00:43:27;18.20;;;2.20;;
19877;SDS011;10101;52.204;9.910;2023-02-24T00:45:54;21.13;;;2.40;;
19877;SDS011;10101;52.204;9.910;2023-02-24T00:48:21;11.63;;;2.27;;
19877;SDS011;10101;52.204;9.910;2023-02-24T00:50:53;15.63;;;2.60;;
19877;SDS011;10101;52.204;9.910;2023-02-24T00:53:21;12.83;;;2.00;;
19877;SDS011;10101;52.204;9.910;2023-02-24T00:55:57;9.50;;;2.17;;
19877;SDS011;10101;52.204;9.910;2023-02-24T00:58:24;16.20;;;2.00;;
19877;SDS011;10101;52.204;9.910;2023-02-24T01:00:54;14.47;;;2.87;;
19877;SDS011;10101;52.204;9.910;2023-02-24T01:03:22;9.90;;;1.90;;
19877;SDS011;10101;52.204;9.910;2023-02-24T01:05:50;12.27;;;2.27;;
19877;SDS011;10101;52.204;9.910;2023-02-24T01:08:18;12.23;;;2.20;;
19877;SDS011;10101;52.204;9.910;2023-02-24T01:10:53;15.03;;;2.13;;
19877;SDS011;10101;52.204;9.910;2023-02-24T01:13:41;12.57;;;2.20;;
19877;SDS011;10101;52.204;9.910;2023-02-24T01:16:07;13.60;;;1.90;;
19877;SDS011;10101;52.204;9.910;2023-02-24T01:18:34;11.57;;;2.00;;
19877;SDS011;10101;52.204;9.910;2023-02-24T01:21:01;5.07;;;1.47;;
19877;SDS011;10101;52.204;9.910;2023-02-24T01:23:29;10.60;;;1.73;;
19877;SDS011;10101;52.204;9.910;2023-02-24T01:25:56;9.93;;;1.83;;
19877;SDS011;10101;52.204;9.910;2023-02-24T01:28:24;5.80;;;1.50;;
19877;SDS011;10101;52.204;9.910;2023-02-24T01:30:51;7.20;;;1.63;;
19877;SDS011;10101;52.204;9.910;2023-02-24T01:33:18;8.40;;;1.40;;
19877;SDS011;10101;52.204;9.910;2023-02-24T01:35:46;9.23;;;1.50;;
19877;SDS011;10101;52.204;9.910;2023-02-24T01:38:13;9.33;;;1.60;;
19877;SDS011;10101;52.204;9.910;2023-02-24T01:40:41;10.47;;;1.80;;
19877;SDS011;10101;52.204;9.910;2023-02-24T01:43:08;9.90;;;1.50;;
19877;SDS011;10101;52.204;9.910;2023-02-24T01:45:37;13.43;;;2.00;;
19877;SDS011;10101;52.204;9.910;2023-02-24T01:48:05;8.17;;;1.27;;
19877;SDS011;10101;52.204;9.910;2023-02-24T01:50:35;11.00;;;1.73;;
19877;SDS011;10101;52.204;9.910;2023-02-24T01:53:04;11.03;;;1.60;;
19877;SDS011;10101;52.204;9.910;2023-02-24T01:55:33;9.00;;;1.50;;
19877;SDS011;10101;52.204;9.910;2023-02-24T01:58:08;6.03;;;1.33;;
19877;SDS011;10101;52.204;9.910;2023-02-24T02:00:39;8.70;;;1.70;;
19877;SDS011;10101;52.204;9.910;2023-02-24T02:03:12;7.43;;;1.57;;
19877;SDS011;10101;52.204;9.910;2023-02-24T02:05:44;7.47;;;1.50;;
19877;SDS011;10101;52.204;9.910;2023-02-24T02:08:12;5.87;;;1.63;;
19877;SDS011;10101;52.204;9.910;2023-02-24T02:10:39;5.57;;;1.27;;
19877;SDS011;10101;52.204;9.910;2023-02-24T02:13:09;11.50;;;2.07;;
19877;SDS011;10101;52.204;9.910;2023-02-24T02:15:45;11.73;;;1.83;;
19877;SDS011;10101;52.204;9.910;2023-02-24T02:18:21;9.17;;;2.00;;
19877;SDS011;10101;52.204;9.910;2023-02-24T02:24:10;9.27;;;2.37;;
19877;SDS011;10101;52.204;9.910;2023-02-24T02:26:57;5.87;;;1.20;;
19877;SDS011;10101;52.204;9.910;2023-02-24T02:33:25;7.70;;;1.83;;
19877;SDS011;10101;52.204;9.910;2023-02-24T02:36:20;11.97;;;1.73;;
19877;SDS011;10101;52.204;9.910;2023-02-24T02:38:52;10.63;;;2.00;;
19877;SDS011;10101;52.204;9.910;2023-02-24T02:41:24;10.27;;;1.90;;
19877;SDS011;10101;52.204;9.910;2023-02-24T02:43:56;8.47;;;1.43;;
19877;SDS011;10101;52.204;9.910;2023-02-24T02:46:33;7.10;;;1.57;;
19877;SDS011;10101;52.204;9.910;2023-02-24T02:49:08;9.50;;;1.77;;
19877;SDS011;10101;52.204;9.910;2023-02-24T02:51:41;10.40;;;1.53;;
19877;SDS011;10101;52.204;9.910;2023-02-24T02:54:16;9.40;;;1.80;;
19877;SDS011;10101;52.204;9.910;2023-02-24T02:56:47;10.63;;;1.63;;
19877;SDS011;10101;52.204;9.910;2023-02-24T02:59:18;9.27;;;1.50;;
19877;SDS011;10101;52.204;9.910;2023-02-24T03:01:50;10.67;;;1.90;;
19877;SDS011;10101;52.204;9.910;2023-02-24T03:04:26;20.07;;;2.23;;
19877;SDS011;10101;52.204;9.910;2023-02-24T03:06:55;12.13;;;2.07;;
19877;SDS011;10101;52.204;9.910;2023-02-24T03:09:26;9.00;;;1.90;;
19877;SDS011;10101;52.204;9.910;2023-02-24T03:11:56;5.97;;;1.50;;
19877;SDS011;10101;52.204;9.910;2023-02-24T03:14:28;9.10;;;1.93;;
19877;SDS011;10101;52.204;9.910;2023-02-24T03:16:59;7.37;;;1.70;;
19877;SDS011;10101;52.204;9.910;2023-02-24T03:19:31;7.83;;;1.53;;
19877;SDS011;10101;52.204;9.910;2023-02-24T03:22:03;8.90;;;1.63;;
19877;SDS011;10101;52.204;9.910;2023-02-24T03:24:36;8.77;;;1.70;;
19877;SDS011;10101;52.204;9.910;2023-02-24T03:27:04;15.50;;;1.80;;
19877;SDS011;10101;52.204;9.910;2023-02-24T03:29:35;9.07;;;2.10;;
19877;SDS011;10101;52.204;9.910;2023-02-24T03:32:08;11.97;;;2.00;;
19877;SDS011;10101;52.204;9.910;2023-02-24T03:34:41;8.90;;;1.80;;
19877;SDS011;10101;52.204;9.910;2023-02-24T03:37:15;9.03;;;1.70;;
19877;SDS011;10101;52.204;9.910;2023-02-24T03:39:49;9.23;;;1.57;;
19877;SDS011;10101;52.204;9.910;2023-02-24T03:42:17;10.70;;;2.37;;
19877;SDS011;10101;52.204;9.910;2023-02-24T03:44:45;5.87;;;1.60;;
19877;SDS011;10101;52.204;9.910;2023-02-24T03:47:13;8.37;;;1.40;;
19877;SDS011;10101;52.204;9.910;2023-02-24T03:49:45;7.30;;;1.37;;
19877;SDS011;10101;52.204;9.910;2023-02-24T03:52:17;8.57;;;1.30;;
19877;SDS011;10101;52.204;9.910;2023-02-24T03:55:03;10.53;;;1.30;;
19877;SDS011;10101;52.204;9.910;2023-02-24T03:57:41;7.47;;;1.53;;
19877;SDS011;10101;52.204;9.910;2023-02-24T04:00:24;5.90;;;1.30;;
19877;SDS011;10101;52.204;9.910;2023-02-24T04:03:00;7.50;;;1.37;;
19877;SDS011;10101;52.204;9.910;2023-02-24T04:05:38;2.37;;;0.80;;
19877;SDS011;10101;52.204;9.910;2023-02-24T04:08:11;4.93;;;1.10;;
19877;SDS011;10101;52.204;9.910;2023-02-24T04:10:42;5.30;;;1.33;;
19877;SDS011;10101;52.204;9.910;2023-02-24T04:13:17;8.53;;;1.20;;
19877;SDS011;10101;52.204;9.910;2023-02-24T04:15:57;7.47;;;1.20;;
19877;SDS011;10101;52.204;9.910;2023-02-24T04:18:28;7.27;;;1.60;;
19877;SDS011;10101;52.204;9.910;2023-02-24T04:20:58;7.27;;;1.37;;
19877;SDS011;10101;52.204;9.910;2023-02-24T04:23:28;3.53;;;0.90;;
19877;SDS011;10101;52.204;9.910;2023-02-24T04:25:58;6.30;;;1.27;;
19877;SDS011;10101;52.204;9.910;2023-02-24T04:28:26;5.87;;;1.20;;
19877;SDS011;10101;52.204;9.910;2023-02-24T04:30:55;2.43;;;1.23;;
19877;SDS011;10101;52.204;9.910;2023-02-24T04:33:24;5.73;;;1.20;;
19877;SDS011;10101;52.204;9.910;2023-02-24T04:35:51;5.13;;;1.30;;
19877;SDS011;10101;52.204;9.910;2023-02-24T04:38:19;2.30;;;1.10;;
19877;SDS011;10101;52.204;9.910;2023-02-24T04:40:47;4.77;;;1.17;;
19877;SDS011;10101;52.204;9.910;2023-02-24T04:43:15;4.47;;;0.97;;
19877;SDS011;10101;52.204;9.910;2023-02-24T04:45:42;10.70;;;1.13;;
19877;SDS011;10101;52.204;9.910;2023-02-24T04:48:09;3.90;;;1.00;;
19877;SDS011;10101;52.204;9.910;2023-02-24T04:50:38;5.23;;;1.10;;
19877;SDS011;10101;52.204;9.910;2023-02-24T04:53:07;8.50;;;1.03;;
19877;SDS011;10101;52.204;9.910;2023-02-24T04:55:37;7.77;;;1.30;;
19877;SDS011;10101;52.204;9.910;2023-02-24T04:58:06;13.10;;;1.73;;
19877;SDS011;10101;52.204;9.910;2023-02-24T05:00:35;8.57;;;1.40;;
19877;SDS011;10101;52.204;9.910;2023-02-24T05:03:06;5.70;;;1.70;;
19877;SDS011;10101;52.204;9.910;2023-02-24T05:05:35;3.43;;;1.00;;
19877;SDS011;10101;52.204;9.910;2023-02-24T05:08:03;6.73;;;1.10;;
19877;SDS011;10101;52.204;9.910;2023-02-24T05:10:34;3.57;;;0.90;;
19877;SDS011;10101;52.204;9.910;2023-02-24T05:13:04;3.77;;;0.93;;
19877;SDS011;10101;52.204;9.910;2023-02-24T05:15:32;4.77;;;0.80;;
19877;SDS011;10101;52.204;9.910;2023-02-24T05:17:59;4.07;;;1.00;;
19877;SDS011;10101;52.204;9.910;2023-02-24T05:20:31;6.50;;;1.10;;
19877;SDS011;10101;52.204;9.910;2023-02-24T05:23:18;5.60;;;1.17;;
19877;SDS011;10101;52.204;9.910;2023-02-24T05:25:49;2.37;;;0.90;;
19877;SDS011;10101;52.204;9.910;2023-02-24T05:28:20;5.63;;;0.80;;
19877;SDS011;10101;52.204;9.910;2023-02-24T05:30:47;6.23;;;0.90;;
19877;SDS011;10101;52.204;9.910;2023-02-24T05:33:14;5.23;;;1.13;;
19877;SDS011;10101;52.204;9.910;2023-02-24T05:35:45;5.37;;;1.30;;
19877;SDS011;10101;52.204;9.910;2023-02-24T05:38:12;6.13;;;1.00;;
19877;SDS011;10101;52.204;9.910;2023-02-24T05:40:43;3.00;;;1.00;;
19877;SDS011;10101;52.204;9.910;2023-02-24T05:43:13;2.30;;;0.90;;
19877;SDS011;10101;52.204;9.910;2023-02-24T05:45:44;9.53;;;0.90;;
19877;SDS011;10101;52.204;9.910;2023-02-24T05:48:11;4.27;;;0.97;;
19877;SDS011;10101;52.204;9.910;2023-02-24T05:50:38;2.77;;;0.80;;
19877;SDS011;10101;52.204;9.910;2023-02-24T05:53:05;4.50;;;0.70;;
19877;SDS011;10101;52.204;9.910;2023-02-24T05:55:33;3.63;;;1.10;;
19877;SDS011;10101;52.204;9.910;2023-02-24T05:58:00;7.40;;;1.47;;
19877;SDS011;10101;52.204;9.910;2023-02-24T06:00:30;3.07;;;1.10;;
19877;SDS011;10101;52.204;9.910;2023-02-24T06:02:58;2.83;;;0.97;;
19877;SDS011;10101;52.204;9.910;2023-02-24T06:05:32;2.57;;;0.97;;
19877;SDS011;10101;52.204;9.910;2023-02-24T06:07:59;4.00;;;1.13;;
19877;SDS011;10101;52.204;9.910;2023-02-24T06:10:30;4.10;;;0.93;;
19877;SDS011;10101;52.204;9.910;2023-02-24T06:12:59;2.27;;;0.83;;
19877;SDS011;10101;52.204;9.910;2023-02-24T06:15:26;5.83;;;1.07;;
19877;SDS011;10101;52.204;9.910;2023-02-24T06:17:54;9.53;;;1.10;;
19877;SDS011;10101;52.204;9.910;2023-02-24T06:20:23;8.53;;;1.20;;
19877;SDS011;10101;52.204;9.910;2023-02-24T06:22:51;1.80;;;0.90;;
19877;SDS011;10101;52.204;9.910;2023-02-24T06:25:21;7.70;;;1.13;;
19877;SDS011;10101;52.204;9.910;2023-02-24T06:27:51;5.27;;;1.00;;
19877;SDS011;10101;52.204;9.910;2023-02-24T06:30:20;3.33;;;0.90;;
19877;SDS011;10101;52.204;9.910;2023-02-24T06:32:48;5.23;;;0.90;;
19877;SDS011;10101;52.204;9.910;2023-02-24T06:35:16;4.33;;;1.43;;
19877;SDS011;10101;52.204;9.910;2023-02-24T06:37:44;3.70;;;1.17;;
19877;SDS011;10101;52.204;9.910;2023-02-24T06:40:11;4.50;;;1.00;;
19877;SDS011;10101;52.204;9.910;2023-02-24T06:45:13;3.37;;;1.10;;
19877;SDS011;10101;52.204;9.910;2023-02-24T06:47:42;4.23;;;1.10;;
19877;SDS011;10101;52.204;9.910;2023-02-24T06:50:13;3.70;;;0.90;;
19877;SDS011;10101;52.204;9.910;2023-02-24T06:52:40;6.93;;;0.97;;
19877;SDS011;10101;52.204;9.910;2023-02-24T06:55:09;10.33;;;0.90;;
19877;SDS011;10101;52.204;9.910;2023-02-24T06:57:49;2.63;;;0.93;;
19877;SDS011;10101;52.204;9.910;2023-02-24T07:00:21;5.23;;;0.93;;
19877;SDS011;10101;52.204;9.910;2023-02-24T07:03:01;2.90;;;0.53;;
19877;SDS011;10101;52.204;9.910;2023-02-24T07:05:39;5.13;;;0.83;;
19877;SDS011;10101;52.204;9.910;2023-02-24T07:08:07;5.10;;;1.13;;
19877;SDS011;10101;52.204;9.910;2023-02-24T07:10:35;2.10;;;1.20;;
19877;SDS011;10101;52.204;9.910;2023-02-24T07:13:03;3.77;;;0.93;;
19877;SDS011;10101;52.204;9.910;2023-02-24T07:15:30;6.33;;;0.93;;
19877;SDS011;10101;52.204;9.910;2023-02-24T07:18:01;2.90;;;0.90;;
19877;SDS011;10101;52.204;9.910;2023-02-24T07:20:28;3.20;;;0.63;;
19877;SDS011;10101;52.204;9.910;2023-02-24T07:22:55;2.13;;;0.60;;
19877;SDS011;10101;52.204;9.910;2023-02-24T07:25:22;1.73;;;0.60;;
19877;SDS011;10101;52.204;9.910;2023-02-24T07:27:59;5.47;;;0.73;;
19877;SDS011;10101;52.204;9.910;2023-02-24T07:30:26;2.33;;;0.80;;
19877;SDS011;10101;52.204;9.910;2023-02-24T07:32:55;3.20;;;0.80;;
19877;SDS011;10101;52.204;9.910;2023-02-24T07:35:21;7.77;;;0.87;;
19877;SDS011;10101;52.204;9.910;2023-02-24T07:37:49;4.23;;;1.03;;
19877;SDS011;10101;52.204;9.910;2023-02-24T07:40:16;6.93;;;1.17;;
19877;SDS011;10101;52.204;9.910;2023-02-24T07:42:46;5.43;;;0.80;;
19877;SDS011;10101;52.204;9.910;2023-02-24T07:45:14;3.97;;;0.87;;
19877;SDS011;10101;52.204;9.910;2023-02-24T07:47:41;1.63;;;0.50;;
19877;SDS011;10101;52.204;9.910;2023-02-24T07:50:08;3.57;;;1.10;;
19877;SDS011;10101;52.204;9.910;2023-02-24T07:52:38;4.77;;;0.77;;
19877;SDS011;10101;52.204;9.910;2023-02-24T07:55:05;5.10;;;0.70;;
19877;SDS011;10101;52.204;9.910;2023-02-24T07:57:33;5.07;;;0.87;;
19877;SDS011;10101;52.204;9.910;2023-02-24T08:00:02;8.50;;;1.43;;
19877;SDS011;10101;52.204;9.910;2023-02-24T08:02:42;2.73;;;0.40;;
19877;SDS011;10101;52.204;9.910;2023-02-24T08:05:09;6.53;;;0.93;;
19877;SDS011;10101;52.204;9.910;2023-02-24T08:07:39;2.77;;;0.90;;
19877;SDS011;10101;52.204;9.910;2023-02-24T08:10:07;3.03;;;1.17;;
19877;SDS011;10101;52.204;9.910;2023-02-24T08:12:38;5.27;;;0.80;;
19877;SDS011;10101;52.204;9.910;2023-02-24T08:15:07;5.40;;;0.93;;
19877;SDS011;10101;52.204;9.910;2023-02-24T08:17:42;2.17;;;0.90;;
19877;SDS011;10101;52.204;9.910;2023-02-24T08:20:11;3.70;;;1.10;;
19877;SDS011;10101;52.204;9.910;2023-02-24T08:22:49;2.53;;;0.80;;
19877;SDS011;10101;52.204;9.910;2023-02-24T08:25:17;3.23;;;0.90;;
19877;SDS011;10101;52.204;9.910;2023-02-24T08:27:47;3.70;;;0.70;;
19877;SDS011;10101;52.204;9.910;2023-02-24T08:30:29;4.27;;;0.80;;
19877;SDS011;10101;52.204;9.910;2023-02-24T08:33:04;3.77;;;0.90;;
19877;SDS011;10101;52.204;9.910;2023-02-24T08:35:33;2.40;;;0.63;;
19877;SDS011;10101;52.204;9.910;2023-02-24T08:38:02;4.10;;;0.80;;
19877;SDS011;10101;52.204;9.910;2023-02-24T08:40:32;2.63;;;0.50;;
19877;SDS011;10101;52.204;9.910;2023-02-24T08:43:05;5.13;;;1.50;;
19877;SDS011;10101;52.204;9.910;2023-02-24T08:45:44;3.70;;;0.67;;
19877;SDS011;10101;52.204;9.910;2023-02-24T08:48:18;7.87;;;1.10;;
19877;SDS011;10101;52.204;9.910;2023-02-24T08:50:56;3.73;;;0.80;;
19877;SDS011;10101;52.204;9.910;2023-02-24T08:53:25;3.73;;;1.07;;
19877;SDS011;10101;52.204;9.910;2023-02-24T08:55:56;3.60;;;0.87;;
19877;SDS011;10101;52.204;9.910;2023-02-24T08:58:24;1.43;;;0.50;;
19877;SDS011;10101;52.204;9.910;2023-02-24T09:00:52;9.37;;;1.00;;
19877;SDS011;10101;52.204;9.910;2023-02-24T09:03:23;6.17;;;1.10;;
19877;SDS011;10101;52.204;9.910;2023-02-24T09:05:58;4.77;;;1.00;;
19877;SDS011;10101;52.204;9.910;2023-02-24T09:08:29;3.93;;;0.83;;
19877;SDS011;10101;52.204;9.910;2023-02-24T09:11:03;3.93;;;1.17;;
19877;SDS011;10101;52.204;9.910;2023-02-24T09:13:33;6.07;;;1.27;;
19877;SDS011;10101;52.204;9.910;2023-02-24T09:16:01;6.77;;;1.27;;
19877;SDS011;10101;52.204;9.910;2023-02-24T09:18:30;4.67;;;1.03;;
19877;SDS011;10101;52.204;9.910;2023-02-24T09:21:08;4.97;;;1.23;;
19877;SDS011;10101;52.204;9.910;2023-02-24T09:23:57;4.90;;;1.03;;
19877;SDS011;10101;52.204;9.910;2023-02-24T09:26:27;2.93;;;0.80;;
19877;SDS011;10101;52.204;9.910;2023-02-24T09:28:57;6.13;;;1.10;;
19877;SDS011;10101;52.204;9.910;2023-02-24T09:31:24;8.50;;;1.30;;
19877;SDS011;10101;52.204;9.910;2023-02-24T09:34:06;6.90;;;0.80;;
19877;SDS011;10101;52.204;9.910;2023-02-24T09:36:34;8.03;;;1.23;;
19877;SDS011;10101;52.204;9.910;2023-02-24T09:39:09;4.27;;;1.17;;
19877;SDS011;10101;52.204;9.910;2023-02-24T09:41:39;2.13;;;0.90;;
19877;SDS011;10101;52.204;9.910;2023-02-24T09:44:24;4.23;;;1.30;;
19877;SDS011;10101;52.204;9.910;2023-02-24T09:46:58;4.03;;;1.13;;
19877;SDS011;10101;52.204;9.910;2023-02-24T09:49:38;4.87;;;0.97;;
19877;SDS011;10101;52.204;9.910;2023-02-24T09:52:12;7.17;;;1.03;;
19877;SDS011;10101;52.204;9.910;2023-02-24T09:54:42;4.73;;;1.30;;
19877;SDS011;10101;52.204;9.910;2023-02-24T09:57:39;3.57;;;0.83;;
19877;SDS011;10101;52.204;9.910;2023-02-24T10:00:28;3.70;;;1.17;;
19877;SDS011;10101;52.204;9.910;2023-02-24T10:02:59;3.43;;;1.10;;
19877;SDS011;10101;52.204;9.910;2023-02-24T10:05:46;3.50;;;1.27;;
19877;SDS011;10101;52.204;9.910;2023-02-24T10:08:25;2.50;;;1.13;;
19877;SDS011;10101;52.204;9.910;2023-02-24T10:10:56;3.73;;;1.43;;
19877;SDS011;10101;52.204;9.910;2023-02-24T10:13:32;5.57;;;1.40;;
19877;SDS011;10101;52.204;9.910;2023-02-24T10:16:02;4.77;;;1.30;;
19877;SDS011;10101;52.204;9.910;2023-02-24T10:18:36;6.17;;;1.40;;
19877;SDS011;10101;52.204;9.910;2023-02-24T10:21:12;3.43;;;0.77;;
19877;SDS011;10101;52.204;9.910;2023-02-24T10:23:57;3.10;;;1.10;;
19877;SDS011;10101;52.204;9.910;2023-02-24T10:26:31;1.43;;;0.63;;
19877;SDS011;10101;52.204;9.910;2023-02-24T10:29:11;4.40;;;1.47;;
19877;SDS011;10101;52.204;9.910;2023-02-24T10:31:53;6.37;;;1.53;;
19877;SDS011;10101;52.204;9.910;2023-02-24T10:34:30;2.90;;;1.37;;
19877;SDS011;10101;52.204;9.910;2023-02-24T10:36:59;5.87;;;1.30;;
19877;SDS011;10101;52.204;9.910;2023-02-24T10:39:35;4.13;;;1.13;;
19877;SDS011;10101;52.204;9.910;2023-02-24T10:42:06;4.57;;;1.30;;
19877;SDS011;10101;52.204;9.910;2023-02-24T10:44:43;1.57;;;1.07;;
19877;SDS011;10101;52.204;9.910;2023-02-24T10:47:17;1.80;;;1.13;;
19877;SDS011;10101;52.204;9.910;2023-02-24T10:49:45;5.30;;;1.40;;
19877;SDS011;10101;52.204;9.910;2023-02-24T10:52:23;5.27;;;1.43;;
19877;SDS011;10101;52.204;9.910;2023-02-24T10:55:15;3.50;;;1.40;;
19877;SDS011;10101;52.204;9.910;2023-02-24T10:57:53;5.43;;;1.50;;
19877;SDS011;10101;52.204;9.910;2023-02-24T11:00:36;4.20;;;1.80;;
19877;SDS011;10101;52.204;9.910;2023-02-24T11:03:25;2.77;;;1.20;;
19877;SDS011;10101;52.204;9.910;2023-02-24T11:06:15;4.63;;;1.60;;
19877;SDS011;10101;52.204;9.910;2023-02-24T11:08:57;4.10;;;1.40;;
19877;SDS011;10101;52.204;9.910;2023-02-24T11:11:43;1.70;;;0.83;;
19877;SDS011;10101;52.204;9.910;2023-02-24T11:14:28;5.63;;;1.20;;
19877;SDS011;10101;52.204;9.910;2023-02-24T11:17:17;6.50;;;1.43;;
19877;SDS011;10101;52.204;9.910;2023-02-24T11:19:53;3.33;;;1.00;;
19877;SDS011;10101;52.204;9.910;2023-02-24T11:22:24;3.53;;;1.47;;
19877;SDS011;10101;52.204;9.910;2023-02-24T11:24:56;3.70;;;1.50;;
19877;SDS011;10101;52.204;9.910;2023-02-24T11:27:23;4.67;;;1.37;;
19877;SDS011;10101;52.204;9.910;2023-02-24T11:29:58;3.87;;;1.23;;
19877;SDS011;10101;52.204;9.910;2023-02-24T11:32:36;2.50;;;1.67;;
19877;SDS011;10101;52.204;9.910;2023-02-24T11:35:13;2.33;;;1.30;;
19877;SDS011;10101;52.204;9.910;2023-02-24T11:37:51;2.87;;;2.00;;
19877;SDS011;10101;52.204;9.910;2023-02-24T11:40:29;4.40;;;1.60;;
19877;SDS011;10101;52.204;9.910;2023-02-24T11:43:03;1.50;;;1.40;;
19877;SDS011;10101;52.204;9.910;2023-02-24T11:45:36;2.43;;;1.30;;
19877;SDS011;10101;52.204;9.910;2023-02-24T11:48:09;2.53;;;1.43;;
19877;SDS011;10101;52.204;9.910;2023-02-24T11:50:40;5.33;;;1.70;;
19877;SDS011;10101;52.204;9.910;2023-02-24T11:53:25;2.23;;;1.90;;
19877;SDS011;10101;52.204;9.910;2023-02-24T11:55:58;3.33;;;2.00;;
19877;SDS011;10101;52.204;9.910;2023-02-24T11:58:30;1.73;;;1.60;;
19877;SDS011;10101;52.204;9.910;2023-02-24T12:01:05;2.73;;;1.47;;
19877;SDS011;10101;52.204;9.910;2023-02-24T12:03:40;3.23;;;1.97;;
19877;SDS011;10101;52.204;9.910;2023-02-24T12:06:15;3.37;;;1.77;;
19877;SDS011;10101;52.204;9.910;2023-02-24T12:08:47;2.43;;;2.03;;
19877;SDS011;10101;52.204;9.910;2023-02-24T12:11:22;3.57;;;2.00;;
19877;SDS011;10101;52.204;9.910;2023-02-24T12:13:55;5.20;;;2.37;;
19877;SDS011;10101;52.204;9.910;2023-02-24T12:16:29;5.63;;;3.13;;
19877;SDS011;10101;52.204;9.910;2023-02-24T12:19:01;2.40;;;1.77;;
19877;SDS011;10101;52.204;9.910;2023-02-24T12:21:32;4.57;;;2.90;;
19877;SDS011;10101;52.204;9.910;2023-02-24T12:24:01;4.70;;;2.60;;
19877;SDS011;10101;52.204;9.910;2023-02-24T12:26:32;4.47;;;2.93;;
19877;SDS011;10101;52.204;9.910;2023-02-24T12:29:14;5.33;;;2.60;;
19877;SDS011;10101;52.204;9.910;2023-02-24T12:31:59;3.60;;;2.30;;
19877;SDS011;10101;52.204;9.910;2023-02-24T12:34:36;4.40;;;2.70;;
19877;SDS011;10101;52.204;9.910;2023-02-24T12:37:19;3.93;;;3.10;;
19877;SDS011;10101;52.204;9.910;2023-02-24T12:39:57;5.63;;;3.27;;
19877;SDS011;10101;52.204;9.910;2023-02-24T12:42:32;4.30;;;2.80;;
19877;SDS011;10101;52.204;9.910;2023-02-24T12:45:09;3.33;;;2.83;;
19877;SDS011;10101;52.204;9.910;2023-02-24T12:47:46;3.13;;;2.80;;
19877;SDS011;10101;52.204;9.910;2023-02-24T12:50:27;4.87;;;3.50;;
19877;SDS011;10101;52.204;9.910;2023-02-24T12:53:03;5.10;;;3.13;;
19877;SDS011;10101;52.204;9.910;2023-02-24T12:55:38;4.83;;;3.30;;
19877;SDS011;10101;52.204;9.910;2023-02-24T12:58:13;6.00;;;3.30;;
19877;SDS011;10101;52.204;9.910;2023-02-24T13:00:49;3.70;;;3.20;;
19877;SDS011;10101;52.204;9.910;2023-02-24T13:03:30;4.80;;;3.50;;
19877;SDS011;10101;52.204;9.910;2023-02-24T13:06:08;2.93;;;2.63;;
19877;SDS011;10101;52.204;9.910;2023-02-24T13:08:48;3.53;;;3.20;;
19877;SDS011;10101;52.204;9.910;2023-02-24T13:11:24;4.83;;;3.07;;
19877;SDS011;10101;52.204;9.910;2023-02-24T13:14:03;5.70;;;3.63;;
19877;SDS011;10101;52.204;9.910;2023-02-24T13:16:36;3.70;;;3.20;;
19877;SDS011;10101;52.204;9.910;2023-02-24T13:19:04;3.03;;;2.70;;
19877;SDS011;10101;52.204;9.910;2023-02-24T13:21:32;3.60;;;3.30;;
19877;SDS011;10101;52.204;9.910;2023-02-24T13:24:00;4.50;;;3.23;;
19877;SDS011;10101;52.204;9.910;2023-02-24T13:26:28;3.20;;;2.90;;
19877;SDS011;10101;52.204;9.910;2023-02-24T13:28:57;3.60;;;2.83;;
19877;SDS011;10101;52.204;9.910;2023-02-24T13:31:37;5.63;;;3.13;;
19877;SDS011;10101;52.204;9.910;2023-02-24T13:36:55;3.23;;;2.90;;
19877;SDS011;10101;52.204;9.910;2023-02-24T13:39:23;3.20;;;2.90;;
19877;SDS011;10101;52.204;9.910;2023-02-24T13:42:04;3.17;;;2.80;;
19877;SDS011;10101;52.204;9.910;2023-02-24T13:44:47;3.00;;;2.70;;
19877;SDS011;10101;52.204;9.910;2023-02-24T13:47:28;3.13;;;2.73;;
19877;SDS011;10101;52.204;9.910;2023-02-24T13:50:12;3.03;;;2.73;;
19877;SDS011;10101;52.204;9.910;2023-02-24T13:55:49;3.47;;;2.87;;
19877;SDS011;10101;52.204;9.910;2023-02-24T14:04:02;3.13;;;2.10;;
19877;SDS011;10101;52.204;9.910;2023-02-24T14:06:35;3.50;;;2.83;;
19877;SDS011;10101;52.204;9.910;2023-02-24T14:09:02;3.83;;;3.23;;
19877;SDS011;10101;52.204;9.910;2023-02-24T14:11:31;5.10;;;3.27;;
19877;SDS011;10101;52.204;9.910;2023-02-24T14:14:01;3.77;;;3.27;;
19877;SDS011;10101;52.204;9.910;2023-02-24T14:16:30;3.60;;;3.07;;
19877;SDS011;10101;52.204;9.910;2023-02-24T14:19:05;3.43;;;2.60;;
19877;SDS011;10101;52.204;9.910;2023-02-24T14:21:45;3.37;;;2.67;;
19877;SDS011;10101;52.204;9.910;2023-02-24T14:24:13;4.57;;;3.07;;
19877;SDS011;10101;52.204;9.910;2023-02-24T14:26:41;3.47;;;3.17;;
19877;SDS011;10101;52.204;9.910;2023-02-24T14:29:09;4.13;;;3.63;;
19877;SDS011;10101;52.204;9.910;2023-02-24T14:31:36;3.63;;;3.07;;
19877;SDS011;10101;52.204;9.910;2023-02-24T14:34:04;4.37;;;3.30;;
19877;SDS011;10101;52.204;9.910;2023-02-24T14:36:34;4.90;;;3.63;;
19877;SDS011;10101;52.204;9.910;2023-02-24T14:39:07;4.50;;;3.90;;
19877;SDS011;10101;52.204;9.910;2023-02-24T14:41:38;4.87;;;3.87;;
19877;SDS011;10101;52.204;9.910;2023-02-24T14:44:07;5.50;;;4.40;;
19877;SDS011;10101;52.204;9.910;2023-02-24T14:46:46;4.93;;;3.20;;
19877;SDS011;10101;52.204;9.910;2023-02-24T14:49:17;3.27;;;2.77;;
19877;SDS011;10101;52.204;9.910;2023-02-24T14:51:48;6.20;;;4.33;;
19877;SDS011;10101;52.204;9.910;2023-02-24T14:54:20;8.00;;;4.00;;
19877;SDS011;10101;52.204;9.910;2023-02-24T14:56:52;6.40;;;4.23;;
19877;SDS011;10101;52.204;9.910;2023-02-24T14:59:20;6.03;;;5.43;;
19877;SDS011;10101;52.204;9.910;2023-02-24T15:01:54;5.33;;;4.27;;
19877;SDS011;10101;52.204;9.910;2023-02-24T15:04:24;9.50;;;4.73;;
19877;SDS011;10101;52.204;9.910;2023-02-24T15:06:59;5.83;;;4.17;;
19877;SDS011;10101;52.204;9.910;2023-02-24T15:09:29;5.80;;;4.50;;
19877;SDS011;10101;52.204;9.910;2023-02-24T15:12:06;4.47;;;3.33;;
19877;SDS011;10101;52.204;9.910;2023-02-24T15:14:35;5.70;;;4.10;;
19877;SDS011;10101;52.204;9.910;2023-02-24T15:17:07;6.73;;;4.43;;
19877;SDS011;10101;52.204;9.910;2023-02-24T15:19:38;8.73;;;4.03;;
19877;SDS011;10101;52.204;9.910;2023-02-24T15:22:17;7.67;;;5.30;;
19877;SDS011;10101;52.204;9.910;2023-02-24T15:24:46;8.37;;;4.73;;
19877;SDS011;10101;52.204;9.910;2023-02-24T15:27:24;6.90;;;4.40;;
19877;SDS011;10101;52.204;9.910;2023-02-24T15:29:56;6.03;;;4.90;;
19877;SDS011;10101;52.204;9.910;2023-02-24T15:32:26;7.57;;;5.37;;
19877;SDS011;10101;52.204;9.910;2023-02-24T15:34:56;5.93;;;4.90;;
19877;SDS011;10101;52.204;9.910;2023-02-24T15:37:25;4.73;;;3.87;;